createdAt,value
2022-09-23T00:01:12.057Z,8.95
2022-09-23T00:03:53.048Z,9.00
2022-09-23T00:06:39.987Z,8.25
2022-09-23T00:12:08.946Z,7.82
2022-09-23T00:14:49.070Z,8.70
2022-09-23T00:17:37.007Z,8.48
2022-09-23T00:20:18.056Z,8.57
2022-09-23T00:23:04.997Z,8.02
2022-09-23T00:25:52.009Z,8.68
2022-09-23T00:31:31.721Z,7.93
2022-09-23T00:34:18.009Z,8.10
2022-09-23T00:36:58.049Z,8.32
2022-09-23T00:39:44.982Z,8.50
2022-09-23T00:45:19.986Z,7.55
2022-09-23T00:50:51.988Z,8.15
2022-09-23T00:53:41.025Z,7.93
2022-09-23T00:56:31.008Z,8.55
2022-09-23T00:59:19.992Z,8.18
2022-09-23T01:02:09.016Z,7.93
2022-09-23T01:04:49.047Z,8.57
2022-09-23T01:07:37.005Z,8.75
2022-09-23T01:10:19.307Z,8.32
2022-09-23T01:13:41.011Z,8.27
2022-09-23T01:16:24.090Z,7.90
2022-09-23T01:19:35.009Z,8.45
2022-09-23T01:22:57.072Z,8.73
2022-09-23T01:26:11.357Z,8.85
2022-09-23T01:29:20.016Z,9.55
2022-09-23T01:32:49.017Z,9.38
2022-09-23T01:35:50.008Z,9.55
2022-09-23T01:39:08.101Z,10.15
2022-09-23T01:42:14.014Z,8.50
2022-09-23T01:45:12.022Z,8.75
2022-09-23T01:48:10.435Z,9.18
2022-09-23T01:51:04.000Z,9.85
2022-09-23T01:54:25.612Z,8.27
2022-09-23T01:57:16.992Z,9.27
2022-09-23T02:00:15.193Z,8.80
2022-09-23T02:03:03.995Z,8.85
2022-09-23T02:05:57.038Z,8.55
2022-09-23T02:11:55.006Z,7.70
2022-09-23T02:14:40.059Z,8.15
2022-09-23T02:17:34.999Z,8.13
2022-09-23T02:20:20.518Z,7.63
2022-09-23T02:23:19.994Z,7.25
2022-09-23T02:26:23.093Z,7.85
2022-09-23T02:29:23.002Z,7.45
2022-09-23T02:32:35.014Z,7.97
2022-09-23T02:35:40.254Z,7.50
2022-09-23T02:38:49.027Z,7.57
2022-09-23T02:41:37.437Z,7.50
2022-09-23T02:44:28.996Z,6.95
2022-09-23T02:47:16.079Z,6.97
2022-09-23T02:52:38.707Z,6.90
2022-09-23T02:55:28.996Z,7.00
2022-09-23T02:58:11.576Z,6.93
2022-09-23T03:01:30.039Z,7.75
2022-09-23T03:04:42.706Z,7.25
2022-09-23T03:07:49.009Z,7.38
2022-09-23T03:11:04.271Z,8.15
2022-09-23T03:14:07.065Z,8.10
2022-09-23T03:17:00.143Z,7.53
2022-09-23T03:20:06.018Z,7.85
2022-09-23T03:22:52.476Z,7.13
2022-09-23T03:25:41.019Z,8.35
2022-09-23T03:28:29.007Z,8.00
2022-09-23T03:31:10.075Z,7.97
2022-09-23T03:34:05.014Z,7.95
2022-09-23T03:37:02.064Z,8.20
2022-09-23T03:39:55.019Z,8.10
2022-09-23T03:42:45.021Z,8.13
2022-09-23T03:45:30.796Z,8.18
2022-09-23T03:48:17.008Z,8.43
2022-09-23T03:53:43.997Z,8.30
2022-09-23T03:56:31.026Z,8.23
2022-09-23T04:01:59.058Z,8.50
2022-09-23T04:04:47.011Z,8.35
2022-09-23T04:07:34.058Z,8.90
2022-09-23T04:10:15.022Z,8.77
2022-09-23T04:13:02.114Z,8.68
2022-09-23T04:18:29.063Z,8.82
2022-09-23T04:23:56.123Z,8.18
2022-09-23T04:29:23.061Z,7.82
2022-09-23T04:34:51.414Z,8.10
2022-09-23T04:40:18.340Z,8.00
2022-09-23T04:45:38.503Z,7.95
2022-09-23T04:48:26.017Z,7.82
2022-09-23T04:51:16.064Z,7.55
2022-09-23T04:53:58.057Z,7.82
2022-09-23T04:56:39.345Z,8.68
2022-09-23T04:59:26.020Z,8.30
2022-09-23T05:04:53.030Z,9.10
2022-09-23T05:07:40.361Z,8.18
2022-09-23T05:13:08.009Z,8.40
2022-09-23T05:15:55.119Z,8.38
2022-09-23T05:21:31.300Z,8.65
2022-09-23T05:24:12.005Z,9.23
2022-09-23T05:26:59.133Z,8.23
2022-09-23T05:32:32.996Z,8.48
2022-09-23T05:35:20.026Z,8.20
2022-09-23T05:41:01.041Z,9.00
2022-09-23T05:43:49.029Z,8.50
2022-09-23T05:46:44.137Z,8.90
2022-09-23T05:49:55.222Z,9.00
2022-09-23T05:52:32.040Z,8.82
2022-09-23T05:55:19.041Z,8.93
2022-09-23T06:00:53.552Z,8.48
2022-09-23T06:06:27.027Z,8.45
2022-09-23T06:09:07.287Z,8.65
2022-09-23T06:11:54.019Z,8.50
2022-09-23T06:17:29.015Z,7.32
2022-09-23T06:22:56.027Z,7.13
2022-09-23T06:28:23.020Z,6.53
2022-09-23T06:34:12.372Z,7.20
2022-09-23T06:36:53.811Z,6.40
2022-09-23T06:39:40.025Z,7.25
2022-09-23T06:45:08.025Z,7.00
2022-09-23T06:47:52.336Z,7.53
2022-09-23T06:50:39.022Z,6.80
2022-09-23T06:56:11.330Z,6.35
2022-09-23T06:58:58.042Z,6.75
2022-09-23T07:01:39.036Z,6.47
2022-09-23T07:04:29.241Z,6.20
2022-09-23T07:07:16.377Z,6.95
2022-09-23T07:09:56.017Z,6.70
2022-09-23T07:12:43.097Z,6.30
2022-09-23T07:15:30.018Z,6.65
2022-09-23T07:18:10.497Z,6.97
2022-09-23T07:20:57.030Z,6.38
2022-09-23T07:23:44.028Z,6.35
2022-09-23T07:26:33.025Z,7.00
2022-09-23T07:29:21.075Z,6.65
2022-09-23T07:32:12.050Z,7.10
2022-09-23T07:37:41.038Z,6.25
2022-09-23T07:40:28.058Z,6.63
2022-09-23T07:43:08.599Z,6.80
2022-09-23T07:45:55.091Z,6.35
2022-09-23T07:48:36.078Z,6.75
2022-09-23T07:51:35.448Z,7.05
2022-09-23T07:54:22.117Z,7.03
2022-09-23T07:57:09.050Z,6.88
2022-09-23T07:59:56.051Z,7.10
2022-09-23T08:02:45.935Z,6.60
2022-09-23T08:05:34.032Z,7.15
2022-09-23T08:08:14.554Z,6.60
2022-09-23T08:11:01.049Z,6.47
2022-09-23T08:13:49.082Z,6.40
2022-09-23T08:16:29.122Z,6.60
2022-09-23T08:19:09.549Z,6.18
2022-09-23T08:21:58.023Z,6.80
2022-09-23T08:24:45.041Z,6.15
2022-09-23T08:27:25.121Z,6.15
2022-09-23T08:30:13.049Z,6.70
2022-09-23T08:33:07.031Z,6.25
2022-09-23T08:35:54.042Z,6.43
2022-09-23T08:38:34.086Z,6.60
2022-09-23T08:41:46.042Z,6.53
2022-09-23T08:44:36.097Z,6.25
2022-09-23T08:47:32.025Z,5.97
2022-09-23T08:50:14.096Z,6.40
2022-09-23T08:53:09.020Z,6.40
2022-09-23T08:55:54.093Z,6.22
2022-09-23T08:58:53.032Z,6.35
2022-09-23T09:01:53.125Z,5.63
2022-09-23T09:04:43.054Z,6.00
2022-09-23T09:07:38.397Z,5.75
2022-09-23T09:10:53.049Z,5.43
2022-09-23T09:13:51.077Z,5.25
2022-09-23T09:17:00.314Z,5.75
2022-09-23T09:19:54.168Z,5.35
2022-09-23T09:22:55.051Z,4.93
2022-09-23T09:26:05.046Z,5.22
2022-09-23T09:29:11.388Z,5.40
2022-09-23T09:32:02.116Z,4.97
2022-09-23T09:35:05.047Z,5.05
2022-09-23T09:37:53.459Z,4.63
2022-09-23T09:40:41.095Z,4.90
2022-09-23T09:43:26.128Z,4.70
2022-09-23T09:46:32.114Z,5.25
2022-09-23T09:49:23.252Z,4.55
2022-09-23T09:52:33.048Z,4.88
2022-09-23T09:55:26.013Z,4.97
2022-09-23T09:58:14.990Z,4.20
2022-09-23T10:00:55.375Z,4.15
2022-09-23T10:03:49.985Z,4.60
2022-09-23T10:06:36.060Z,4.40
2022-09-23T10:09:28.010Z,3.85
2022-09-23T10:12:25.992Z,4.25
2022-09-23T10:15:33.996Z,3.97
2022-09-23T10:18:32.991Z,4.22
2022-09-23T10:21:27.550Z,3.90
2022-09-23T10:24:12.986Z,3.83
2022-09-23T10:27:01.790Z,3.67
2022-09-23T10:30:02.998Z,3.90
2022-09-23T10:32:51.011Z,3.90
2022-09-23T10:35:44.985Z,3.70
2022-09-23T10:38:31.992Z,3.42
2022-09-23T10:42:03.854Z,3.20
